createdAt,value
2019-03-25T00:00:30.410Z,9.40
2019-03-25T00:02:56.692Z,9.60
2019-03-25T00:05:22.911Z,9.40
2019-03-25T00:07:49.179Z,9.40
2019-03-25T00:10:15.397Z,9.40
2019-03-25T00:12:41.658Z,9.40
2019-03-25T00:15:08.115Z,9.50
2019-03-25T00:17:34.389Z,9.50
2019-03-25T00:20:00.619Z,9.50
2019-03-25T00:22:27.003Z,9.50
2019-03-25T00:24:53.245Z,9.40
2019-03-25T00:27:19.574Z,9.40
2019-03-25T00:29:45.822Z,9.40
2019-03-25T00:32:12.045Z,9.40
2019-03-25T00:34:38.293Z,9.40
2019-03-25T00:37:04.532Z,9.40
2019-03-25T00:39:30.782Z,9.40
2019-03-25T00:41:57.009Z,9.30
2019-03-25T00:44:23.258Z,9.30
2019-03-25T00:46:49.486Z,9.40
2019-03-25T00:49:15.741Z,9.40
2019-03-25T00:51:41.970Z,9.40
2019-03-25T00:54:08.239Z,9.40
2019-03-25T00:56:34.457Z,9.40
2019-03-25T00:59:00.970Z,9.30
2019-03-25T01:01:27.246Z,9.40
2019-03-25T01:03:53.478Z,9.30
2019-03-25T01:06:19.744Z,9.30
2019-03-25T01:08:45.959Z,9.30
2019-03-25T01:11:12.302Z,9.30
2019-03-25T01:13:38.552Z,9.30
2019-03-25T01:16:04.911Z,9.20
2019-03-25T01:18:31.126Z,9.20
2019-03-25T01:20:57.381Z,9.20
2019-03-25T01:23:23.633Z,9.20
2019-03-25T01:25:49.870Z,9.10
2019-03-25T01:28:16.106Z,9.10
2019-03-25T01:30:42.353Z,9.10
2019-03-25T01:33:08.586Z,9.00
2019-03-25T01:35:34.834Z,9.00
2019-03-25T01:38:01.108Z,8.90
2019-03-25T01:40:27.306Z,8.90
2019-03-25T01:42:53.532Z,8.80
2019-03-25T01:45:19.779Z,9.10
2019-03-25T01:47:46.000Z,9.40
2019-03-25T01:50:12.418Z,9.50
2019-03-25T01:52:38.637Z,9.40
2019-03-25T01:55:13.326Z,9.30
2019-03-25T01:57:33.425Z,9.20
2019-03-25T01:59:59.687Z,9.10
2019-03-25T02:02:25.945Z,9.00
2019-03-25T02:04:52.173Z,8.90
2019-03-25T02:07:18.442Z,8.90
2019-03-25T02:09:44.663Z,8.90
2019-03-25T02:12:10.926Z,8.70
2019-03-25T02:14:37.150Z,8.60
2019-03-25T02:17:03.505Z,8.70
2019-03-25T02:19:29.738Z,8.60
2019-03-25T02:21:55.982Z,8.60
2019-03-25T02:24:22.210Z,8.50
2019-03-25T02:26:48.474Z,8.50
2019-03-25T02:29:14.703Z,8.50
2019-03-25T02:31:40.925Z,8.50
2019-03-25T02:34:07.178Z,8.50
2019-03-25T02:36:33.423Z,8.50
2019-03-25T02:38:59.671Z,8.50
2019-03-25T02:41:25.895Z,8.50
2019-03-25T02:43:52.146Z,8.50
2019-03-25T02:46:18.369Z,8.50
2019-03-25T02:48:44.643Z,8.40
2019-03-25T02:51:10.923Z,8.40
2019-03-25T02:53:37.166Z,8.30
2019-03-25T02:56:03.580Z,8.30
2019-03-25T02:58:29.901Z,8.30
2019-03-25T03:00:56.151Z,8.20
2019-03-25T03:03:22.418Z,8.20
2019-03-25T03:05:48.638Z,8.00
2019-03-25T03:08:15.018Z,8.00
2019-03-25T03:10:41.230Z,7.80
2019-03-25T03:13:07.504Z,7.80
2019-03-25T03:15:33.827Z,7.70
2019-03-25T03:18:00.052Z,7.50
2019-03-25T03:20:26.302Z,7.50
2019-03-25T03:22:52.531Z,7.60
2019-03-25T03:25:18.779Z,7.40
2019-03-25T03:27:45.003Z,7.40
2019-03-25T03:30:11.483Z,7.50
2019-03-25T03:32:37.707Z,7.60
2019-03-25T03:35:05.564Z,7.60
2019-03-25T03:37:31.798Z,7.50
2019-03-25T03:39:58.143Z,7.50
2019-03-25T03:42:24.367Z,7.40
2019-03-25T03:44:50.625Z,7.40
2019-03-25T03:47:16.879Z,7.30
2019-03-25T03:49:43.109Z,7.30
2019-03-25T03:52:09.542Z,7.20
2019-03-25T03:54:35.866Z,7.20
2019-03-25T03:57:02.316Z,7.20
2019-03-25T03:59:28.986Z,7.10
2019-03-25T04:01:55.259Z,7.10
2019-03-25T04:04:21.480Z,7.10
2019-03-25T04:06:47.721Z,7.00
2019-03-25T04:09:13.946Z,7.10
2019-03-25T04:11:40.198Z,7.20
2019-03-25T04:14:06.513Z,7.30
2019-03-25T04:16:32.771Z,7.30
2019-03-25T04:18:59.095Z,7.30
2019-03-25T04:21:25.387Z,7.40
2019-03-25T04:23:52.204Z,7.30
2019-03-25T04:26:28.353Z,7.30
2019-03-25T04:28:46.488Z,7.30
2019-03-25T04:31:12.735Z,7.10
2019-03-25T04:33:38.959Z,7.00
2019-03-25T04:36:05.287Z,6.90
2019-03-25T04:38:31.543Z,6.80
2019-03-25T04:40:57.775Z,6.90
2019-03-25T04:43:24.026Z,6.70
2019-03-25T04:45:50.281Z,6.60
2019-03-25T04:48:16.531Z,6.60
2019-03-25T04:50:42.763Z,6.60
2019-03-25T04:53:09.111Z,6.60
2019-03-25T04:55:35.345Z,6.50
2019-03-25T04:58:01.600Z,6.40
2019-03-25T05:00:35.039Z,6.40
2019-03-25T05:03:01.267Z,6.30
2019-03-25T05:05:27.598Z,6.20
2019-03-25T05:07:53.859Z,6.10
2019-03-25T05:10:20.087Z,6.20
2019-03-25T05:12:46.311Z,6.10
2019-03-25T05:15:12.556Z,6.10
2019-03-25T05:17:38.774Z,6.10
2019-03-25T05:20:05.248Z,6.00
2019-03-25T05:22:31.466Z,6.00
2019-03-25T05:24:57.729Z,6.00
2019-03-25T05:27:23.966Z,6.00
2019-03-25T05:29:50.227Z,6.00
2019-03-25T05:32:16.451Z,6.10
2019-03-25T05:34:42.670Z,6.30
2019-03-25T05:37:08.919Z,7.00
2019-03-25T05:39:35.161Z,7.60
2019-03-25T05:42:01.923Z,8.20
2019-03-25T05:44:28.118Z,9.50
2019-03-25T05:46:54.370Z,10.90
2019-03-25T05:49:20.598Z,12.10
2019-03-25T05:51:46.850Z,13.20
2019-03-25T05:54:13.068Z,14.20
2019-03-25T05:56:39.322Z,15.30
2019-03-25T05:59:05.546Z,16.40
2019-03-25T06:01:31.923Z,17.20
2019-03-25T06:03:58.241Z,18.00
2019-03-25T06:06:24.482Z,19.00
2019-03-25T06:08:50.714Z,19.10
2019-03-25T06:11:16.957Z,19.80
2019-03-25T06:13:43.193Z,20.40
2019-03-25T06:16:09.457Z,20.60
2019-03-25T06:18:35.683Z,21.20
2019-03-25T06:21:02.006Z,22.20
2019-03-25T06:23:28.257Z,22.70
2019-03-25T06:25:54.515Z,23.50
2019-03-25T06:28:20.757Z,24.10
2019-03-25T06:30:47.007Z,23.90
2019-03-25T06:33:13.253Z,24.70
2019-03-25T06:35:39.501Z,25.10
2019-03-25T06:38:05.741Z,25.00
2019-03-25T06:40:31.986Z,24.80
2019-03-25T06:42:58.232Z,24.90
2019-03-25T06:45:24.487Z,25.10
2019-03-25T06:47:50.721Z,26.00
2019-03-25T06:50:16.934Z,26.00
2019-03-25T06:52:43.156Z,23.90
2019-03-25T06:55:09.901Z,21.50
2019-03-25T06:57:38.497Z,19.70
2019-03-25T07:00:10.920Z,18.60
2019-03-25T07:02:37.190Z,17.90
2019-03-25T07:05:03.838Z,16.70
2019-03-25T07:07:30.087Z,15.40
2019-03-25T07:09:56.314Z,14.30
2019-03-25T07:12:22.950Z,13.80
2019-03-25T07:14:49.390Z,13.20
2019-03-25T07:17:15.630Z,13.00
2019-03-25T07:19:41.899Z,14.30
2019-03-25T07:22:08.114Z,12.60
2019-03-25T07:24:34.346Z,13.20
2019-03-25T07:27:00.590Z,13.30
2019-03-25T07:29:26.814Z,12.60
2019-03-25T07:31:53.067Z,11.90
2019-03-25T07:34:19.285Z,11.40
2019-03-25T07:36:45.538Z,10.90
2019-03-25T07:39:12.101Z,10.40
2019-03-25T07:41:38.349Z,10.00
2019-03-25T07:44:04.578Z,10.50
2019-03-25T07:46:30.841Z,12.20
2019-03-25T07:48:57.078Z,13.30
2019-03-25T07:51:23.653Z,13.60
2019-03-25T07:53:51.051Z,17.00
2019-03-25T07:56:17.413Z,17.30
2019-03-25T07:58:43.661Z,15.60
2019-03-25T08:01:09.914Z,15.10
2019-03-25T08:03:36.193Z,16.50
2019-03-25T08:06:02.422Z,14.80
2019-03-25T08:08:28.667Z,13.20
2019-03-25T08:10:55.137Z,13.10
2019-03-25T08:13:21.475Z,12.50
2019-03-25T08:15:47.926Z,12.00
2019-03-25T08:18:14.165Z,11.40
2019-03-25T08:20:40.390Z,11.00
2019-03-25T08:23:06.642Z,10.80
2019-03-25T08:25:32.995Z,10.90
2019-03-25T08:28:00.385Z,11.10
2019-03-25T08:30:27.178Z,11.40
2019-03-25T08:32:53.508Z,11.30
2019-03-25T08:35:19.745Z,11.40
2019-03-25T08:37:45.961Z,11.80
2019-03-25T08:40:12.814Z,12.00
2019-03-25T08:42:39.042Z,11.60
2019-03-25T08:45:05.893Z,11.80
2019-03-25T08:47:32.227Z,12.10
2019-03-25T08:49:58.478Z,12.00
2019-03-25T08:52:24.700Z,11.70
2019-03-25T08:54:50.946Z,11.50
2019-03-25T08:57:17.178Z,11.90
2019-03-25T08:59:43.456Z,11.90
2019-03-25T09:02:09.806Z,11.60
2019-03-25T09:04:36.075Z,8.80
2019-03-25T09:07:02.294Z,11.20
2019-03-25T09:09:28.723Z,11.10
2019-03-25T09:11:54.970Z,11.40
2019-03-25T09:14:21.199Z,11.60
2019-03-25T09:16:47.438Z,11.40
2019-03-25T09:19:13.668Z,10.80
2019-03-25T09:21:39.925Z,10.30
2019-03-25T09:24:06.255Z,10.20
2019-03-25T09:26:32.601Z,10.10
2019-03-25T09:28:58.923Z,10.10
2019-03-25T09:31:36.169Z,10.30
2019-03-25T09:33:53.326Z,10.50
2019-03-25T09:36:19.981Z,11.00
2019-03-25T09:38:46.703Z,11.00
2019-03-25T09:41:13.162Z,11.10
2019-03-25T09:43:39.418Z,11.60
2019-03-25T09:46:05.870Z,11.30
2019-03-25T09:48:32.199Z,11.40
2019-03-25T09:50:58.419Z,11.40
2019-03-25T09:53:24.664Z,11.40
2019-03-25T09:55:50.894Z,11.50
2019-03-25T09:58:17.234Z,11.90
2019-03-25T10:00:43.494Z,11.60
2019-03-25T10:03:09.734Z,11.40
2019-03-25T10:05:36.169Z,10.60
2019-03-25T10:08:02.448Z,10.40
2019-03-25T10:10:28.666Z,10.10
2019-03-25T10:12:56.814Z,9.90
2019-03-25T10:15:22.946Z,9.90
2019-03-25T10:17:49.314Z,9.90
2019-03-25T10:20:15.909Z,9.70
2019-03-25T10:22:42.763Z,9.40
2019-03-25T10:25:11.207Z,9.10
2019-03-25T10:27:37.457Z,9.20
2019-03-25T10:30:10.206Z,9.40
2019-03-25T10:32:36.558Z,9.50
2019-03-25T10:35:04.382Z,10.00
2019-03-25T10:37:30.616Z,10.20
2019-03-25T10:39:56.845Z,10.20
2019-03-25T10:42:23.098Z,10.50
2019-03-25T10:44:49.327Z,11.00
2019-03-25T10:47:15.542Z,11.50
2019-03-25T10:49:41.810Z,11.70
2019-03-25T10:52:08.030Z,12.20
2019-03-25T10:54:34.314Z,11.80
2019-03-25T10:57:00.623Z,12.10
2019-03-25T10:59:26.882Z,11.90
2019-03-25T11:01:53.990Z,12.00
2019-03-25T11:04:20.243Z,12.20
2019-03-25T11:06:46.569Z,12.00
2019-03-25T11:09:12.837Z,11.90
2019-03-25T11:11:39.033Z,11.50
2019-03-25T11:14:05.385Z,11.70
2019-03-25T11:16:31.630Z,11.40
2019-03-25T11:18:57.849Z,11.40
2019-03-25T11:21:24.094Z,11.20
2019-03-25T11:23:50.314Z,11.40
2019-03-25T11:26:16.557Z,11.30
2019-03-25T11:28:42.777Z,11.20
2019-03-25T11:31:09.031Z,11.20
2019-03-25T11:33:35.270Z,11.20
2019-03-25T11:36:02.846Z,11.10
2019-03-25T11:38:29.146Z,11.20
2019-03-25T11:40:55.692Z,11.20
2019-03-25T11:43:22.021Z,11.20
2019-03-25T11:45:48.358Z,10.70
2019-03-25T11:48:14.585Z,10.50
2019-03-25T11:50:40.842Z,10.50
2019-03-25T11:53:07.070Z,10.40
2019-03-25T11:55:33.323Z,11.00
2019-03-25T11:57:59.574Z,11.60
2019-03-25T12:00:25.930Z,10.90
2019-03-25T12:02:52.157Z,10.60
2019-03-25T12:05:18.422Z,10.30
2019-03-25T12:07:44.654Z,10.10
2019-03-25T12:10:11.410Z,9.90
2019-03-25T12:12:37.627Z,10.10
2019-03-25T12:15:05.754Z,10.50
2019-03-25T12:17:32.045Z,10.50
2019-03-25T12:19:58.239Z,10.80
2019-03-25T12:22:24.488Z,10.80
2019-03-25T12:24:50.814Z,10.90
2019-03-25T12:27:17.086Z,10.80
2019-03-25T12:29:43.286Z,11.00
2019-03-25T12:32:09.534Z,10.90
2019-03-25T12:34:35.795Z,10.60
2019-03-25T12:37:02.055Z,10.30
2019-03-25T12:39:28.276Z,10.10
2019-03-25T12:41:54.674Z,9.70
2019-03-25T12:44:20.928Z,9.80
2019-03-25T12:46:47.151Z,10.20
2019-03-25T12:49:13.412Z,10.30
2019-03-25T12:51:39.653Z,10.30
2019-03-25T12:54:05.906Z,9.90
2019-03-25T12:56:32.122Z,9.10
2019-03-25T12:58:58.341Z,8.60
2019-03-25T13:01:24.626Z,8.30
2019-03-25T13:03:50.867Z,8.00
2019-03-25T13:06:17.201Z,7.70
2019-03-25T13:08:43.426Z,7.60
2019-03-25T13:11:09.682Z,7.80
2019-03-25T13:13:35.910Z,8.20
2019-03-25T13:16:02.292Z,8.40
2019-03-25T13:18:28.833Z,8.40
2019-03-25T13:20:55.087Z,8.50
2019-03-25T13:23:21.310Z,8.50
2019-03-25T13:25:47.577Z,8.70
2019-03-25T13:28:13.794Z,8.50
2019-03-25T13:30:40.023Z,8.60
2019-03-25T13:33:06.271Z,8.70
2019-03-25T13:35:32.595Z,8.60
2019-03-25T13:37:59.067Z,8.80
2019-03-25T13:40:25.361Z,8.90
2019-03-25T13:42:51.619Z,9.10
2019-03-25T13:45:17.850Z,8.90
2019-03-25T13:47:44.115Z,8.80
2019-03-25T13:50:10.642Z,8.80
2019-03-25T13:52:36.911Z,9.00
2019-03-25T13:55:04.552Z,9.30
2019-03-25T13:57:30.781Z,9.30
2019-03-25T14:00:03.289Z,9.70
2019-03-25T14:02:25.023Z,9.70
2019-03-25T14:04:51.269Z,9.80
2019-03-25T14:07:17.489Z,9.80
2019-03-25T14:09:43.743Z,9.70
2019-03-25T14:12:09.978Z,9.80
2019-03-25T14:14:36.206Z,9.60
2019-03-25T14:17:02.549Z,9.40
2019-03-25T14:19:29.398Z,9.10
2019-03-25T14:21:55.826Z,9.00
2019-03-25T14:24:22.074Z,8.80
2019-03-25T14:26:48.298Z,8.40
2019-03-25T14:29:14.570Z,7.80
2019-03-25T14:31:40.791Z,7.40
2019-03-25T14:34:07.052Z,7.20
2019-03-25T14:36:33.292Z,7.10
2019-03-25T14:38:59.513Z,7.10
2019-03-25T14:41:25.770Z,7.00
2019-03-25T14:43:51.999Z,7.10
2019-03-25T14:46:18.245Z,7.10
2019-03-25T14:48:44.475Z,7.10
2019-03-25T14:51:10.728Z,7.30
2019-03-25T14:53:44.786Z,7.50
2019-03-25T14:56:04.997Z,7.40
2019-03-25T14:58:31.226Z,7.50
2019-03-25T15:00:57.486Z,7.50
2019-03-25T15:03:23.768Z,7.60
2019-03-25T15:05:50.009Z,7.60
2019-03-25T15:08:16.233Z,7.80
2019-03-25T15:10:53.012Z,8.00
2019-03-25T15:13:10.546Z,8.00
2019-03-25T15:15:36.796Z,8.10
2019-03-25T15:18:03.146Z,8.20
2019-03-25T15:20:29.399Z,8.30
2019-03-25T15:22:55.617Z,8.30
2019-03-25T15:25:21.994Z,8.40
2019-03-25T15:27:48.206Z,8.40
2019-03-25T15:30:14.650Z,8.30
2019-03-25T15:32:40.934Z,8.30
2019-03-25T15:35:07.870Z,8.40
2019-03-25T15:37:34.213Z,8.60
2019-03-25T15:40:00.534Z,8.70
2019-03-25T15:42:26.783Z,8.80
2019-03-25T15:44:52.997Z,8.80
2019-03-25T15:47:19.323Z,9.00
2019-03-25T15:49:45.573Z,9.00
2019-03-25T15:52:11.817Z,9.00
2019-03-25T15:54:38.042Z,9.10
2019-03-25T15:57:04.399Z,9.20
2019-03-25T15:59:30.622Z,9.10
2019-03-25T16:01:56.881Z,9.10
2019-03-25T16:04:23.102Z,8.80
2019-03-25T16:06:49.330Z,8.70
2019-03-25T16:09:15.677Z,8.50
2019-03-25T16:11:41.916Z,8.50
2019-03-25T16:14:08.169Z,8.60
2019-03-25T16:16:34.634Z,8.60
2019-03-25T16:19:00.891Z,8.70
2019-03-25T16:21:27.114Z,8.80
2019-03-25T16:23:53.637Z,9.00
2019-03-25T16:26:19.841Z,9.10
2019-03-25T16:28:46.084Z,9.10
2019-03-25T16:31:13.306Z,9.00
2019-03-25T16:33:39.555Z,8.90
2019-03-25T16:36:05.772Z,8.80
2019-03-25T16:38:32.018Z,9.00
2019-03-25T16:40:58.244Z,8.70
2019-03-25T16:43:24.490Z,8.80
2019-03-25T16:45:50.874Z,8.70
2019-03-25T16:48:17.129Z,8.70
2019-03-25T16:50:43.345Z,8.70
2019-03-25T16:53:09.598Z,8.70
2019-03-25T16:55:35.835Z,9.70
2019-03-25T16:58:02.070Z,8.60
2019-03-25T17:00:28.327Z,9.40
2019-03-25T17:02:54.647Z,10.20
2019-03-25T17:05:21.024Z,10.70
2019-03-25T17:07:47.251Z,10.80
2019-03-25T17:10:13.605Z,11.10
2019-03-25T17:12:39.846Z,10.80
2019-03-25T17:15:06.525Z,11.40
2019-03-25T17:17:32.811Z,10.90
2019-03-25T17:19:59.006Z,10.80
2019-03-25T17:22:25.257Z,10.70
2019-03-25T17:24:51.478Z,10.80
2019-03-25T17:27:17.726Z,10.10
2019-03-25T17:29:43.949Z,9.80
2019-03-25T17:32:10.198Z,10.00
2019-03-25T17:34:36.421Z,9.90
2019-03-25T17:37:02.790Z,9.70
2019-03-25T17:39:29.062Z,9.50
2019-03-25T17:41:55.372Z,9.60
2019-03-25T17:44:21.629Z,9.80
2019-03-25T17:46:47.994Z,10.10
2019-03-25T17:49:14.343Z,9.10
2019-03-25T17:51:40.630Z,8.70
2019-03-25T17:54:06.974Z,8.50
2019-03-25T17:56:33.214Z,8.50
2019-03-25T17:58:59.456Z,8.40
2019-03-25T18:01:32.176Z,8.20
2019-03-25T18:03:55.737Z,8.10
2019-03-25T18:06:22.109Z,8.00
2019-03-25T18:08:48.355Z,7.80
2019-03-25T18:11:14.876Z,7.50
2019-03-25T18:13:41.117Z,7.40
2019-03-25T18:16:07.494Z,7.20
2019-03-25T18:18:33.754Z,7.10
2019-03-25T18:20:59.973Z,7.00
2019-03-25T18:23:26.222Z,6.90
2019-03-25T18:25:52.564Z,6.80
2019-03-25T18:28:18.901Z,6.70
2019-03-25T18:30:45.226Z,6.70
2019-03-25T18:33:11.498Z,6.50
2019-03-25T18:35:37.734Z,6.40
2019-03-25T18:38:03.991Z,6.40
2019-03-25T18:40:30.210Z,6.30
2019-03-25T18:42:56.505Z,6.20
2019-03-25T18:45:22.733Z,6.20
2019-03-25T18:47:48.991Z,6.40
2019-03-25T18:50:15.349Z,6.40
2019-03-25T18:52:41.923Z,6.40
2019-03-25T18:55:08.341Z,6.50
2019-03-25T18:57:34.862Z,6.50
2019-03-25T19:00:01.192Z,6.50
2019-03-25T19:02:28.047Z,6.50
2019-03-25T19:04:54.294Z,6.60
2019-03-25T19:07:20.686Z,6.60
2019-03-25T19:09:46.904Z,6.60
2019-03-25T19:12:13.155Z,6.60
2019-03-25T19:14:39.456Z,6.50
2019-03-25T19:17:05.768Z,6.60
2019-03-25T19:19:31.992Z,6.50
2019-03-25T19:21:58.579Z,6.60
2019-03-25T19:24:24.802Z,6.60
2019-03-25T19:26:51.051Z,6.60
2019-03-25T19:29:17.294Z,6.80
2019-03-25T19:31:43.535Z,6.60
2019-03-25T19:34:09.798Z,6.60
2019-03-25T19:36:36.050Z,6.60
2019-03-25T19:39:05.108Z,6.60
2019-03-25T19:41:32.954Z,6.70
2019-03-25T19:43:59.396Z,6.80
2019-03-25T19:46:25.610Z,6.60
2019-03-25T19:48:51.908Z,6.50
2019-03-25T19:51:18.125Z,6.60
2019-03-25T19:53:44.656Z,6.30
2019-03-25T19:56:10.905Z,6.30
2019-03-25T19:58:37.247Z,6.30
2019-03-25T20:01:03.469Z,6.20
2019-03-25T20:03:29.716Z,6.30
2019-03-25T20:05:55.918Z,6.30
2019-03-25T20:08:22.207Z,6.20
2019-03-25T20:10:48.434Z,6.20
2019-03-25T20:13:14.687Z,6.10
2019-03-25T20:15:46.415Z,6.10
2019-03-25T20:18:08.992Z,6.20
2019-03-25T20:20:35.269Z,6.10
2019-03-25T20:23:01.677Z,6.20
2019-03-25T20:25:28.484Z,6.40
2019-03-25T20:27:54.684Z,6.20
2019-03-25T20:30:21.234Z,6.20
2019-03-25T20:32:47.783Z,6.00
2019-03-25T20:35:14.021Z,6.00
2019-03-25T20:37:40.242Z,6.00
2019-03-25T20:40:07.029Z,5.90
2019-03-25T20:42:33.318Z,5.90
2019-03-25T20:44:59.557Z,5.90
2019-03-25T20:47:25.779Z,5.90
2019-03-25T20:49:52.073Z,5.80
2019-03-25T20:52:18.310Z,5.70
2019-03-25T20:54:44.532Z,5.70
2019-03-25T20:57:10.720Z,5.70
2019-03-25T20:59:37.098Z,5.80
2019-03-25T21:02:03.327Z,5.80
2019-03-25T21:04:29.543Z,5.80
2019-03-25T21:06:55.798Z,5.80
2019-03-25T21:09:22.107Z,5.70
2019-03-25T21:11:48.366Z,5.80
2019-03-25T21:14:14.573Z,5.70
2019-03-25T21:16:40.900Z,5.70
2019-03-25T21:19:07.146Z,5.70
2019-03-25T21:21:33.369Z,5.60
2019-03-25T21:23:59.547Z,5.50
2019-03-25T21:26:25.837Z,5.40
2019-03-25T21:28:52.058Z,5.50
2019-03-25T21:31:18.321Z,5.40
2019-03-25T21:33:44.618Z,5.40
2019-03-25T21:36:10.874Z,5.40
2019-03-25T21:38:37.317Z,5.20
2019-03-25T21:41:03.557Z,5.20
2019-03-25T21:43:29.808Z,5.40
2019-03-25T21:45:56.013Z,5.40
2019-03-25T21:48:22.273Z,5.40
2019-03-25T21:50:48.549Z,5.40
2019-03-25T21:53:14.728Z,5.30
2019-03-25T21:55:41.319Z,5.40
2019-03-25T21:58:07.679Z,5.90
2019-03-25T22:00:33.978Z,5.90
2019-03-25T22:03:11.305Z,5.90
2019-03-25T22:05:28.301Z,5.60
2019-03-25T22:07:54.542Z,5.40
2019-03-25T22:10:20.805Z,5.40
2019-03-25T22:12:47.031Z,5.10
2019-03-25T22:15:13.474Z,5.00
2019-03-25T22:17:39.778Z,5.10
2019-03-25T22:20:08.377Z,5.40
2019-03-25T22:22:34.606Z,5.20
2019-03-25T22:25:00.863Z,5.30
2019-03-25T22:27:27.094Z,5.10
2019-03-25T22:29:53.920Z,5.10
2019-03-25T22:32:22.147Z,5.10
2019-03-25T22:34:48.437Z,5.20
2019-03-25T22:37:14.779Z,5.30
2019-03-25T22:39:40.990Z,5.20
2019-03-25T22:42:07.252Z,5.20
2019-03-25T22:44:33.478Z,5.10
2019-03-25T22:46:59.754Z,5.10
2019-03-25T22:49:25.950Z,5.00
2019-03-25T22:51:52.202Z,5.30
2019-03-25T22:54:18.566Z,5.00
2019-03-25T22:56:44.782Z,5.00
2019-03-25T22:59:11.032Z,5.20
2019-03-25T23:01:37.861Z,5.20
2019-03-25T23:04:04.150Z,4.90
2019-03-25T23:06:30.374Z,5.30
2019-03-25T23:08:56.626Z,5.20
2019-03-25T23:11:22.874Z,5.10
2019-03-25T23:13:49.407Z,5.20
2019-03-25T23:16:15.623Z,5.10
2019-03-25T23:18:41.898Z,5.10
2019-03-25T23:21:08.146Z,5.30
2019-03-25T23:23:34.406Z,5.10
2019-03-25T23:26:00.630Z,5.00
2019-03-25T23:28:26.866Z,5.00
2019-03-25T23:30:53.125Z,5.10
2019-03-25T23:33:19.464Z,4.90
2019-03-25T23:35:45.706Z,4.90
2019-03-25T23:38:11.949Z,4.80
2019-03-25T23:40:38.225Z,4.80
2019-03-25T23:43:04.464Z,4.60
2019-03-25T23:45:30.702Z,4.70
2019-03-25T23:47:56.934Z,4.80
2019-03-25T23:50:23.181Z,4.80
2019-03-25T23:52:49.402Z,4.90
2019-03-25T23:55:15.655Z,5.30
2019-03-25T23:57:41.886Z,5.10
